createdAt,value
2019-05-07T00:02:13.451Z,4.37
2019-05-07T00:05:33.155Z,4.42
2019-05-07T00:08:20.371Z,4.28
2019-05-07T00:10:56.153Z,4.34
2019-05-07T00:13:33.279Z,4.32
2019-05-07T00:16:32.593Z,4.40
2019-05-07T00:19:08.751Z,4.24
2019-05-07T00:21:44.572Z,4.14
2019-05-07T00:24:22.259Z,4.11
2019-05-07T00:27:36.938Z,4.14
2019-05-07T00:37:32.131Z,3.98
2019-05-07T00:55:23.766Z,3.81
2019-05-07T00:57:59.500Z,3.78
2019-05-07T01:00:35.576Z,3.85
2019-05-07T01:16:25.007Z,4.06
2019-05-07T01:19:42.347Z,4.11
2019-05-07T01:22:17.487Z,4.14
2019-05-07T01:37:06.468Z,4.06
2019-05-07T01:48:48.522Z,3.97
2019-05-07T01:51:28.035Z,3.96
2019-05-07T01:54:03.193Z,3.81
2019-05-07T01:56:39.150Z,3.77
2019-05-07T01:59:15.446Z,3.75
2019-05-07T02:18:17.576Z,3.58
2019-05-07T02:33:26.793Z,3.40
2019-05-07T02:39:53.104Z,3.22
2019-05-07T02:42:27.222Z,3.20
2019-05-07T02:48:25.837Z,3.30
2019-05-07T02:54:27.322Z,3.07
2019-05-07T03:04:18.650Z,3.12
2019-05-07T03:07:06.135Z,3.15
2019-05-07T03:13:26.336Z,3.21
2019-05-07T03:22:43.490Z,3.21
2019-05-07T03:25:43.122Z,3.01
2019-05-07T03:28:57.092Z,3.06
2019-05-07T03:43:06.093Z,2.88
2019-05-07T04:00:04.243Z,2.87
2019-05-07T04:06:45.243Z,2.78
2019-05-07T04:14:13.830Z,2.93
2019-05-07T04:32:55.040Z,3.12
2019-05-07T04:36:02.973Z,3.20
2019-05-07T05:17:51.481Z,4.79
2019-05-07T05:27:47.758Z,5.13
2019-05-07T05:34:26.849Z,5.09
2019-05-07T05:37:02.566Z,5.32
2019-05-07T05:40:04.873Z,5.37
2019-05-07T05:42:34.955Z,5.17
2019-05-07T05:48:51.983Z,5.63
2019-05-07T05:51:45.391Z,5.72
2019-05-07T05:55:02.547Z,5.81
2019-05-07T06:01:47.740Z,5.78
2019-05-07T06:04:42.363Z,5.85
2019-05-07T06:07:47.044Z,5.84
2019-05-07T06:10:38.835Z,5.82
2019-05-07T06:13:28.602Z,5.84
2019-05-07T06:16:13.032Z,6.21
2019-05-07T06:22:48.654Z,6.57
2019-05-07T06:25:24.960Z,6.81
2019-05-07T06:28:01.976Z,6.80
2019-05-07T06:31:12.655Z,6.58
2019-05-07T06:33:49.676Z,6.73
2019-05-07T06:36:25.640Z,6.62
2019-05-07T06:39:14.647Z,6.75
2019-05-07T06:42:42.854Z,6.95
2019-05-07T06:45:39.044Z,7.29
2019-05-07T06:48:14.864Z,7.46
2019-05-07T06:50:59.361Z,7.21
2019-05-07T06:53:35.237Z,7.49
2019-05-07T06:56:12.058Z,7.52
2019-05-07T06:59:13.250Z,7.76
2019-05-07T07:02:06.412Z,7.78
2019-05-07T07:04:48.429Z,7.97
2019-05-07T07:07:37.588Z,8.12
2019-05-07T07:10:29.158Z,8.04
2019-05-07T07:13:04.206Z,8.09
2019-05-07T07:15:39.233Z,8.42
2019-05-07T07:18:14.060Z,8.42
2019-05-07T07:20:49.043Z,8.59
2019-05-07T07:23:24.740Z,8.70
2019-05-07T07:25:59.997Z,8.90
2019-05-07T07:28:35.962Z,9.06
2019-05-07T07:31:39.318Z,9.01
2019-05-07T07:34:14.367Z,9.10
2019-05-07T07:39:52.501Z,9.03
2019-05-07T07:42:27.524Z,9.20
2019-05-07T07:45:23.050Z,9.29
2019-05-07T07:47:58.146Z,9.57
2019-05-07T07:50:33.888Z,9.99
2019-05-07T07:53:08.896Z,10.16
2019-05-07T07:56:03.582Z,10.44
2019-05-07T07:59:01.990Z,10.13
2019-05-07T08:01:58.061Z,10.68
2019-05-07T08:04:33.545Z,11.03
2019-05-07T08:07:08.540Z,10.85
2019-05-07T08:10:19.133Z,10.53
2019-05-07T08:12:54.120Z,10.80
2019-05-07T08:15:29.106Z,11.06
2019-05-07T08:18:04.924Z,11.14
2019-05-07T08:20:39.938Z,11.26
2019-05-07T08:23:15.891Z,10.46
2019-05-07T08:25:52.572Z,10.14
2019-05-07T08:28:27.857Z,10.74
2019-05-07T08:31:15.528Z,11.31
2019-05-07T08:33:57.012Z,11.26
2019-05-07T08:36:33.097Z,10.96
2019-05-07T08:39:08.794Z,10.77
2019-05-07T08:42:18.798Z,10.52
2019-05-07T08:45:04.010Z,10.63
2019-05-07T08:47:46.343Z,10.15
2019-05-07T08:50:22.463Z,9.93
2019-05-07T08:52:58.235Z,10.03
2019-05-07T08:55:33.685Z,10.12
2019-05-07T08:58:08.761Z,9.74
2019-05-07T09:00:44.191Z,9.64
2019-05-07T09:03:38.013Z,9.75
2019-05-07T09:06:14.317Z,10.10
2019-05-07T09:08:49.481Z,10.71
2019-05-07T09:11:24.543Z,11.36
2019-05-07T09:14:01.726Z,11.66
2019-05-07T09:16:36.339Z,11.37
2019-05-07T09:19:12.830Z,11.01
2019-05-07T09:21:48.282Z,10.99
2019-05-07T09:24:23.455Z,10.62
2019-05-07T09:27:17.376Z,10.81
2019-05-07T09:30:06.840Z,10.70
2019-05-07T09:32:47.315Z,11.63
2019-05-07T09:35:42.423Z,11.25
2019-05-07T09:38:17.633Z,11.44
2019-05-07T09:40:52.819Z,11.24
2019-05-07T09:43:27.891Z,11.61
2019-05-07T09:46:04.872Z,11.63
2019-05-07T09:48:41.648Z,11.38
2019-05-07T09:51:16.618Z,11.43
2019-05-07T09:53:52.024Z,11.69
2019-05-07T09:56:27.164Z,11.78
2019-05-07T09:59:02.340Z,11.92
2019-05-07T10:01:38.250Z,11.90
2019-05-07T10:04:13.736Z,11.93
2019-05-07T10:06:48.679Z,11.42
2019-05-07T10:09:23.857Z,11.57
2019-05-07T10:12:04.791Z,11.56
2019-05-07T10:14:41.957Z,11.75
2019-05-07T10:17:38.852Z,11.96
2019-05-07T10:20:21.817Z,11.92
2019-05-07T10:22:52.223Z,12.50
2019-05-07T10:25:29.719Z,12.79
2019-05-07T10:28:08.075Z,12.85
2019-05-07T10:30:43.250Z,12.50
2019-05-07T10:33:20.060Z,12.23
2019-05-07T10:35:55.250Z,12.29
2019-05-07T10:38:30.436Z,12.13
2019-05-07T10:41:05.635Z,12.39
2019-05-07T10:43:42.877Z,12.27
2019-05-07T10:46:36.889Z,12.64
2019-05-07T10:49:22.565Z,12.92
2019-05-07T10:51:57.668Z,12.63
2019-05-07T10:54:32.862Z,12.87
2019-05-07T10:57:07.924Z,13.61
2019-05-07T10:59:43.807Z,13.70
2019-05-07T11:02:32.460Z,13.18
2019-05-07T11:05:07.840Z,13.21
2019-05-07T11:07:43.212Z,13.29
2019-05-07T11:10:18.512Z,12.46
2019-05-07T11:12:53.769Z,12.60
2019-05-07T11:15:32.542Z,12.75
2019-05-07T11:18:12.742Z,12.52
2019-05-07T11:21:32.980Z,12.28
2019-05-07T11:24:07.504Z,12.87
2019-05-07T11:26:42.682Z,13.19
2019-05-07T11:29:17.742Z,12.81
2019-05-07T11:31:52.986Z,13.49
2019-05-07T11:34:28.188Z,13.68
2019-05-07T11:37:03.413Z,13.82
2019-05-07T11:39:38.435Z,13.88
2019-05-07T11:42:38.632Z,14.00
2019-05-07T11:45:22.755Z,13.43
2019-05-07T11:47:57.860Z,13.66
2019-05-07T11:51:00.474Z,14.33
2019-05-07T11:53:24.943Z,15.32
2019-05-07T11:56:02.350Z,15.76
2019-05-07T11:58:36.713Z,15.13
2019-05-07T12:01:18.276Z,14.95
2019-05-07T12:04:28.892Z,14.21
2019-05-07T12:07:06.202Z,14.23
2019-05-07T12:09:41.359Z,14.17
2019-05-07T12:12:16.399Z,13.28
2019-05-07T12:14:58.067Z,13.54
2019-05-07T12:17:33.788Z,12.97
2019-05-07T12:20:08.956Z,13.11
2019-05-07T12:22:47.238Z,13.20
2019-05-07T12:25:24.052Z,13.40
2019-05-07T12:28:02.132Z,14.39
2019-05-07T12:31:12.139Z,14.54
2019-05-07T12:34:06.259Z,14.54
2019-05-07T12:36:41.404Z,14.32
2019-05-07T12:39:16.487Z,14.46
2019-05-07T12:41:52.434Z,14.25
2019-05-07T12:44:28.547Z,14.09
2019-05-07T12:47:04.368Z,14.23
2019-05-07T12:49:39.334Z,14.27
2019-05-07T12:52:24.636Z,14.66
2019-05-07T12:55:19.502Z,15.80
2019-05-07T12:57:55.220Z,16.54
2019-05-07T13:00:47.701Z,17.29
2019-05-07T13:03:32.438Z,16.98
2019-05-07T13:06:07.740Z,15.85
2019-05-07T13:08:42.896Z,17.09
2019-05-07T13:11:17.893Z,17.80
2019-05-07T13:13:53.081Z,17.23
2019-05-07T13:16:28.144Z,15.91
2019-05-07T13:19:03.308Z,16.30
2019-05-07T13:21:47.411Z,16.47
2019-05-07T13:24:15.097Z,16.80
2019-05-07T13:26:51.878Z,17.78
2019-05-07T13:29:27.011Z,17.00
2019-05-07T13:32:04.314Z,16.39
2019-05-07T13:34:39.606Z,17.01
2019-05-07T13:37:21.876Z,18.22
2019-05-07T13:40:15.798Z,19.39
2019-05-07T13:43:02.867Z,19.01
2019-05-07T13:45:45.508Z,20.49
2019-05-07T13:48:22.697Z,18.74
2019-05-07T13:50:58.095Z,17.55
2019-05-07T13:53:33.786Z,16.23
2019-05-07T13:56:12.816Z,15.51
2019-05-07T13:58:49.668Z,15.77
2019-05-07T14:01:37.314Z,15.35
2019-05-07T14:04:13.169Z,14.78
2019-05-07T14:06:48.188Z,14.66
2019-05-07T14:12:05.976Z,15.32
2019-05-07T14:14:42.561Z,16.43
2019-05-07T14:17:18.344Z,16.03
2019-05-07T14:19:53.534Z,15.52
2019-05-07T14:22:28.602Z,15.34
2019-05-07T14:25:03.792Z,14.72
2019-05-07T14:27:38.915Z,14.64
2019-05-07T14:30:15.592Z,14.86
2019-05-07T14:33:01.838Z,15.19
2019-05-07T14:35:55.870Z,15.60
2019-05-07T14:38:38.548Z,15.85
2019-05-07T14:41:14.023Z,15.89
2019-05-07T14:44:01.454Z,15.48
2019-05-07T14:46:47.329Z,15.72
2019-05-07T14:49:14.655Z,15.36
2019-05-07T14:51:49.732Z,15.61
2019-05-07T14:54:24.922Z,16.13
2019-05-07T14:57:02.147Z,15.79
2019-05-07T15:00:14.506Z,15.49
2019-05-07T15:02:49.848Z,14.72
2019-05-07T15:05:27.644Z,14.41
2019-05-07T15:08:10.665Z,14.74
2019-05-07T15:10:48.817Z,14.22
2019-05-07T15:13:23.989Z,14.09
2019-05-07T15:15:59.970Z,14.61
2019-05-07T15:19:03.952Z,15.34
2019-05-07T15:21:39.324Z,15.87
2019-05-07T15:24:15.464Z,15.76
2019-05-07T15:26:53.229Z,16.12
2019-05-07T15:29:28.307Z,16.37
2019-05-07T15:32:08.208Z,16.23
2019-05-07T15:34:44.624Z,15.95
2019-05-07T15:37:19.636Z,15.23
2019-05-07T15:39:54.631Z,14.63
2019-05-07T15:42:29.942Z,14.63
2019-05-07T15:45:05.230Z,14.88
2019-05-07T15:47:44.547Z,15.38
2019-05-07T15:50:19.646Z,14.97
2019-05-07T15:53:22.552Z,14.43
2019-05-07T15:55:57.665Z,14.90
2019-05-07T15:58:33.238Z,15.20
2019-05-07T16:01:12.804Z,14.78
2019-05-07T16:03:47.968Z,15.03
2019-05-07T16:06:23.165Z,14.70
2019-05-07T16:09:04.175Z,14.58
2019-05-07T16:11:39.109Z,14.71
2019-05-07T16:14:26.383Z,14.34
2019-05-07T16:17:07.163Z,14.03
2019-05-07T16:19:42.658Z,13.65
2019-05-07T16:22:24.904Z,13.73
2019-05-07T16:25:04.896Z,13.85
2019-05-07T16:27:42.618Z,13.75
2019-05-07T16:30:18.737Z,13.85
2019-05-07T16:32:55.623Z,13.64
2019-05-07T16:35:32.024Z,13.71
2019-05-07T16:38:07.497Z,13.98
2019-05-07T16:40:43.007Z,14.14
2019-05-07T16:43:18.264Z,14.40
2019-05-07T16:45:53.474Z,14.45
2019-05-07T16:48:28.550Z,14.63
2019-05-07T16:51:03.730Z,14.80
2019-05-07T16:53:38.695Z,14.66
2019-05-07T16:56:14.444Z,14.64
2019-05-07T16:58:54.386Z,14.57
2019-05-07T17:02:12.178Z,14.55
2019-05-07T17:05:06.688Z,14.31
2019-05-07T17:07:56.334Z,14.22
2019-05-07T17:10:31.946Z,14.06
2019-05-07T17:13:09.785Z,14.12
2019-05-07T17:16:03.087Z,13.97
2019-05-07T17:18:36.658Z,13.86
2019-05-07T17:21:12.319Z,13.70
2019-05-07T17:23:47.407Z,13.74
2019-05-07T17:26:23.200Z,13.66
2019-05-07T17:28:58.450Z,13.49
2019-05-07T17:31:33.926Z,13.50
2019-05-07T17:34:09.014Z,13.59
2019-05-07T17:36:44.186Z,13.69
2019-05-07T17:39:19.272Z,13.70
2019-05-07T17:41:54.520Z,13.65
2019-05-07T17:44:29.529Z,13.71
2019-05-07T17:47:04.671Z,13.64
2019-05-07T17:50:16.974Z,13.57
2019-05-07T17:52:53.467Z,13.51
2019-05-07T17:55:28.699Z,13.44
2019-05-07T17:58:03.905Z,13.32
2019-05-07T18:00:39.496Z,13.34
2019-05-07T18:03:34.034Z,13.24
2019-05-07T18:06:09.260Z,13.21
2019-05-07T18:08:44.386Z,13.20
2019-05-07T18:11:34.679Z,13.15
2019-05-07T18:14:32.133Z,13.06
2019-05-07T18:17:28.165Z,13.00
2019-05-07T18:20:04.148Z,12.92
2019-05-07T18:22:39.343Z,12.82
2019-05-07T18:25:16.021Z,12.75
2019-05-07T18:27:52.668Z,12.71
2019-05-07T18:30:27.887Z,12.75
2019-05-07T18:33:37.023Z,12.72
2019-05-07T18:36:12.323Z,12.67
2019-05-07T18:38:47.454Z,12.52
2019-05-07T18:41:22.675Z,12.40
2019-05-07T18:44:08.962Z,12.46
2019-05-07T18:46:34.940Z,12.04
2019-05-07T18:49:10.081Z,11.72
2019-05-07T18:51:45.151Z,11.33
2019-05-07T18:54:27.938Z,11.19
2019-05-07T18:56:56.944Z,10.95
2019-05-07T18:59:35.368Z,10.81
2019-05-07T19:02:10.747Z,10.66
2019-05-07T19:04:45.889Z,10.63
2019-05-07T19:07:23.101Z,10.39
2019-05-07T19:09:57.741Z,10.46
2019-05-07T19:12:34.855Z,10.54
2019-05-07T19:15:12.431Z,10.57
2019-05-07T19:17:47.768Z,10.40
2019-05-07T19:20:22.998Z,10.34
2019-05-07T19:22:57.996Z,10.37
2019-05-07T19:25:33.328Z,10.30
2019-05-07T19:28:11.965Z,10.34
2019-05-07T19:30:45.606Z,10.25
2019-05-07T19:33:25.858Z,10.19
2019-05-07T19:35:57.737Z,10.14
2019-05-07T19:38:33.022Z,10.08
2019-05-07T19:41:08.291Z,9.96
2019-05-07T19:43:44.450Z,10.02
2019-05-07T19:46:19.449Z,10.20
2019-05-07T19:48:55.222Z,10.34
2019-05-07T19:51:32.051Z,10.28
2019-05-07T19:54:07.089Z,10.30
2019-05-07T19:56:42.741Z,10.34
2019-05-07T19:59:17.795Z,10.39
2019-05-07T20:01:57.420Z,10.44
2019-05-07T20:04:33.199Z,10.47
2019-05-07T20:07:08.304Z,10.45
2019-05-07T20:09:43.606Z,10.31
2019-05-07T20:12:18.735Z,10.31
2019-05-07T20:14:55.473Z,10.26
2019-05-07T20:17:33.472Z,10.35
2019-05-07T20:20:07.963Z,10.37
2019-05-07T20:22:43.195Z,10.36
2019-05-07T20:25:22.430Z,10.34
2019-05-07T20:27:56.867Z,10.42
2019-05-07T20:30:34.967Z,10.42
2019-05-07T20:33:10.063Z,10.36
2019-05-07T20:35:45.263Z,10.34
2019-05-07T20:38:20.312Z,10.19
2019-05-07T20:40:55.485Z,10.30
2019-05-07T20:43:32.298Z,10.41
2019-05-07T20:46:07.282Z,10.33
2019-05-07T20:48:42.512Z,10.32
2019-05-07T20:51:18.740Z,10.36
2019-05-07T20:54:09.779Z,10.35
2019-05-07T20:57:06.439Z,10.36
2019-05-07T20:59:41.661Z,10.33
2019-05-07T21:02:16.797Z,10.25
2019-05-07T21:04:52.013Z,10.17
2019-05-07T21:07:27.030Z,10.05
2019-05-07T21:10:02.245Z,10.02
2019-05-07T21:12:39.729Z,9.95
2019-05-07T21:15:14.732Z,9.82
2019-05-07T21:17:49.744Z,9.71
2019-05-07T21:20:24.777Z,9.66
2019-05-07T21:22:59.716Z,9.63
2019-05-07T21:25:42.562Z,9.66
2019-05-07T21:28:12.266Z,9.50
2019-05-07T21:30:47.587Z,9.41
2019-05-07T21:33:23.091Z,9.39
2019-05-07T21:35:58.091Z,9.41
2019-05-07T21:38:33.364Z,9.26
2019-05-07T21:41:09.409Z,9.35
2019-05-07T21:43:46.190Z,9.35
2019-05-07T21:46:22.176Z,9.41
2019-05-07T21:48:57.627Z,9.33
2019-05-07T21:51:33.223Z,9.37
2019-05-07T21:54:33.319Z,9.25
2019-05-07T21:57:33.193Z,9.26
2019-05-07T22:00:28.496Z,9.16
2019-05-07T22:03:09.799Z,9.13
2019-05-07T22:05:45.150Z,9.08
2019-05-07T22:08:21.906Z,9.08
2019-05-07T22:10:57.006Z,9.02
2019-05-07T22:14:07.295Z,8.97
2019-05-07T22:16:42.535Z,9.02
2019-05-07T22:19:17.622Z,9.04
2019-05-07T22:21:52.810Z,8.99
2019-05-07T22:24:27.906Z,9.02
2019-05-07T22:27:04.261Z,9.09
2019-05-07T22:29:41.710Z,9.15
2019-05-07T22:32:36.186Z,9.08
2019-05-07T22:35:22.542Z,9.09
2019-05-07T22:38:03.862Z,9.13
2019-05-07T22:40:40.541Z,9.07
2019-05-07T22:43:17.224Z,9.09
2019-05-07T22:45:52.350Z,9.18
2019-05-07T22:48:27.346Z,9.13
2019-05-07T22:51:02.804Z,9.13
2019-05-07T22:53:37.968Z,9.14
2019-05-07T22:56:14.174Z,9.26
2019-05-07T22:58:53.581Z,9.21
2019-05-07T23:01:38.562Z,9.20
2019-05-07T23:04:13.756Z,9.14
2019-05-07T23:06:48.884Z,9.10
2019-05-07T23:09:24.190Z,9.06
2019-05-07T23:12:01.740Z,9.00
2019-05-07T23:14:36.694Z,8.96
2019-05-07T23:17:12.583Z,8.91
2019-05-07T23:19:51.941Z,8.97
2019-05-07T23:22:25.644Z,8.88
2019-05-07T23:25:00.646Z,8.88
2019-05-07T23:27:35.814Z,8.85
2019-05-07T23:30:12.983Z,8.83
2019-05-07T23:32:48.338Z,8.81
2019-05-07T23:35:23.380Z,8.85
2019-05-07T23:37:58.370Z,8.79
2019-05-07T23:40:47.650Z,8.75
2019-05-07T23:43:23.610Z,8.66
2019-05-07T23:45:58.684Z,8.65
2019-05-07T23:48:34.473Z,8.55
2019-05-07T23:51:09.476Z,8.49
2019-05-07T23:53:44.536Z,8.53
2019-05-07T23:56:22.141Z,8.49
2019-05-07T23:58:57.218Z,8.49
